sensor_id;sensor_type;location;lat;lon;timestamp;temperature;humidity
12870;DHT22;6503;48.572;13.460;2022-12-18T00:00:48;-2.90;99.90
12870;DHT22;6503;48.572;13.460;2022-12-18T00:03:19;-2.80;99.90
12870;DHT22;6503;48.572;13.460;2022-12-18T00:06:03;-2.80;99.90
12870;DHT22;6503;48.572;13.460;2022-12-18T00:08:34;-2.90;99.90
12870;DHT22;6503;48.572;13.460;2022-12-18T00:11:03;-3.00;99.90
12870;DHT22;6503;48.572;13.460;2022-12-18T00:13:31;-3.00;99.90
12870;DHT22;6503;48.572;13.460;2022-12-18T00:16:05;-3.00;99.90
12870;DHT22;6503;48.572;13.460;2022-12-18T00:18:35;-3.10;99.90
12870;DHT22;6503;48.572;13.460;2022-12-18T00:21:05;-3.00;99.90
12870;DHT22;6503;48.572;13.460;2022-12-18T00:23:35;-3.10;99.90
12870;DHT22;6503;48.572;13.460;2022-12-18T00:26:06;-3.10;99.90
12870;DHT22;6503;48.572;13.460;2022-12-18T00:28:35;-3.00;99.90
12870;DHT22;6503;48.572;13.460;2022-12-18T00:31:06;-3.10;99.90
12870;DHT22;6503;48.572;13.460;2022-12-18T00:33:36;-3.00;99.90
12870;DHT22;6503;48.572;13.460;2022-12-18T00:36:04;-3.10;99.90
12870;DHT22;6503;48.572;13.460;2022-12-18T00:38:34;-3.10;99.90
12870;DHT22;6503;48.572;13.460;2022-12-18T00:41:02;-3.20;99.90
12870;DHT22;6503;48.572;13.460;2022-12-18T00:43:30;-3.20;99.90
12870;DHT22;6503;48.572;13.460;2022-12-18T00:45:56;-3.20;99.90
12870;DHT22;6503;48.572;13.460;2022-12-18T00:48:26;-3.30;99.90
12870;DHT22;6503;48.572;13.460;2022-12-18T00:50:54;-3.50;99.90
12870;DHT22;6503;48.572;13.460;2022-12-18T00:53:28;-3.50;99.90
12870;DHT22;6503;48.572;13.460;2022-12-18T00:55:56;-3.50;99.90
12870;DHT22;6503;48.572;13.460;2022-12-18T00:58:27;-3.50;99.90
12870;DHT22;6503;48.572;13.460;2022-12-18T01:00:54;-3.50;99.90
12870;DHT22;6503;48.572;13.460;2022-12-18T01:03:21;-3.50;99.90
12870;DHT22;6503;48.572;13.460;2022-12-18T01:05:51;-3.50;99.90
12870;DHT22;6503;48.572;13.460;2022-12-18T01:08:19;-3.50;99.90
12870;DHT22;6503;48.572;13.460;2022-12-18T01:10:51;-3.50;99.90
12870;DHT22;6503;48.572;13.460;2022-12-18T01:13:18;-3.40;99.90
12870;DHT22;6503;48.572;13.460;2022-12-18T01:15:48;-3.50;99.90
12870;DHT22;6503;48.572;13.460;2022-12-18T01:18:19;-3.70;99.90
12870;DHT22;6503;48.572;13.460;2022-12-18T01:21:11;-3.60;99.90
12870;DHT22;6503;48.572;13.460;2022-12-18T01:23:40;-3.60;99.90
12870;DHT22;6503;48.572;13.460;2022-12-18T01:26:22;-3.70;99.90
12870;DHT22;6503;48.572;13.460;2022-12-18T01:28:58;-3.70;99.90
12870;DHT22;6503;48.572;13.460;2022-12-18T01:31:30;-3.80;99.90
12870;DHT22;6503;48.572;13.460;2022-12-18T01:34:11;-3.80;99.90
12870;DHT22;6503;48.572;13.460;2022-12-18T01:36:57;-3.90;99.90
12870;DHT22;6503;48.572;13.460;2022-12-18T01:39:29;-3.90;99.90
12870;DHT22;6503;48.572;13.460;2022-12-18T01:42:19;-3.90;99.90
12870;DHT22;6503;48.572;13.460;2022-12-18T01:45:20;-4.00;99.90
12870;DHT22;6503;48.572;13.460;2022-12-18T01:47:54;-4.00;99.90
12870;DHT22;6503;48.572;13.460;2022-12-18T01:50:35;-4.00;99.90
12870;DHT22;6503;48.572;13.460;2022-12-18T01:56:22;-4.10;99.90
12870;DHT22;6503;48.572;13.460;2022-12-18T01:58:52;-4.10;99.90
12870;DHT22;6503;48.572;13.460;2022-12-18T02:01:23;-4.10;99.90
12870;DHT22;6503;48.572;13.460;2022-12-18T02:04:19;-4.20;99.90
12870;DHT22;6503;48.572;13.460;2022-12-18T02:07:17;-4.20;99.90
12870;DHT22;6503;48.572;13.460;2022-12-18T02:09:59;-4.20;99.90
12870;DHT22;6503;48.572;13.460;2022-12-18T02:12:51;-4.30;99.90
12870;DHT22;6503;48.572;13.460;2022-12-18T02:15:26;-4.30;99.90
12870;DHT22;6503;48.572;13.460;2022-12-18T02:18:14;-4.20;99.90
12870;DHT22;6503;48.572;13.460;2022-12-18T02:20:50;-4.20;99.90
12870;DHT22;6503;48.572;13.460;2022-12-18T02:23:42;-4.20;99.90
12870;DHT22;6503;48.572;13.460;2022-12-18T02:26:30;-4.20;99.90
12870;DHT22;6503;48.572;13.460;2022-12-18T02:29:08;-4.20;99.90
12870;DHT22;6503;48.572;13.460;2022-12-18T02:31:46;-4.20;99.90
12870;DHT22;6503;48.572;13.460;2022-12-18T02:34:23;-4.20;99.90
12870;DHT22;6503;48.572;13.460;2022-12-18T02:37:02;-4.20;99.90
12870;DHT22;6503;48.572;13.460;2022-12-18T02:39:44;-4.20;99.90
12870;DHT22;6503;48.572;13.460;2022-12-18T02:42:19;-4.20;99.90
12870;DHT22;6503;48.572;13.460;2022-12-18T02:44:49;-4.20;99.90
12870;DHT22;6503;48.572;13.460;2022-12-18T02:47:47;-4.20;99.90
12870;DHT22;6503;48.572;13.460;2022-12-18T02:50:21;-4.10;99.90
12870;DHT22;6503;48.572;13.460;2022-12-18T02:52:56;-4.10;99.90
12870;DHT22;6503;48.572;13.460;2022-12-18T02:55:37;-4.10;99.90
12870;DHT22;6503;48.572;13.460;2022-12-18T02:58:30;-4.10;99.90
12870;DHT22;6503;48.572;13.460;2022-12-18T03:01:07;-4.10;99.90
12870;DHT22;6503;48.572;13.460;2022-12-18T03:03:47;-4.10;99.90
12870;DHT22;6503;48.572;13.460;2022-12-18T03:06:24;-4.10;99.90
12870;DHT22;6503;48.572;13.460;2022-12-18T03:09:08;-4.10;99.90
12870;DHT22;6503;48.572;13.460;2022-12-18T03:11:39;-4.10;99.90
12870;DHT22;6503;48.572;13.460;2022-12-18T03:14:30;-4.10;99.90
12870;DHT22;6503;48.572;13.460;2022-12-18T03:17:10;-4.10;99.90
12870;DHT22;6503;48.572;13.460;2022-12-18T03:19:56;-4.20;99.90
12870;DHT22;6503;48.572;13.460;2022-12-18T03:23:09;-4.20;99.90
12870;DHT22;6503;48.572;13.460;2022-12-18T03:26:02;-4.20;99.90
12870;DHT22;6503;48.572;13.460;2022-12-18T03:29:17;-4.20;99.90
12870;DHT22;6503;48.572;13.460;2022-12-18T03:32:16;-4.20;99.90
12870;DHT22;6503;48.572;13.460;2022-12-18T03:35:27;-4.20;99.90
12870;DHT22;6503;48.572;13.460;2022-12-18T03:38:20;-4.30;99.90
12870;DHT22;6503;48.572;13.460;2022-12-18T03:40:59;-4.20;99.90
12870;DHT22;6503;48.572;13.460;2022-12-18T03:47:06;-4.20;99.90
12870;DHT22;6503;48.572;13.460;2022-12-18T03:49:44;-4.10;99.90
12870;DHT22;6503;48.572;13.460;2022-12-18T03:52:30;-4.10;99.90
12870;DHT22;6503;48.572;13.460;2022-12-18T03:55:00;-4.10;99.90
12870;DHT22;6503;48.572;13.460;2022-12-18T03:57:31;-4.20;99.90
12870;DHT22;6503;48.572;13.460;2022-12-18T04:00:03;-4.20;99.90
12870;DHT22;6503;48.572;13.460;2022-12-18T04:02:34;-4.20;99.90
12870;DHT22;6503;48.572;13.460;2022-12-18T04:05:09;-4.20;99.90
12870;DHT22;6503;48.572;13.460;2022-12-18T04:07:40;-4.20;99.90
12870;DHT22;6503;48.572;13.460;2022-12-18T04:10:08;-4.30;99.90
12870;DHT22;6503;48.572;13.460;2022-12-18T04:12:56;-4.30;99.90
12870;DHT22;6503;48.572;13.460;2022-12-18T04:15:26;-4.20;99.90
12870;DHT22;6503;48.572;13.460;2022-12-18T04:17:53;-4.20;99.90
12870;DHT22;6503;48.572;13.460;2022-12-18T04:20:23;-4.20;99.90
12870;DHT22;6503;48.572;13.460;2022-12-18T04:22:52;-4.20;99.90
12870;DHT22;6503;48.572;13.460;2022-12-18T04:25:20;-4.20;99.90
12870;DHT22;6503;48.572;13.460;2022-12-18T04:27:51;-4.20;99.90
12870;DHT22;6503;48.572;13.460;2022-12-18T04:30:22;-4.20;99.90
12870;DHT22;6503;48.572;13.460;2022-12-18T04:32:49;-4.20;99.90
12870;DHT22;6503;48.572;13.460;2022-12-18T04:35:19;-4.30;99.90
12870;DHT22;6503;48.572;13.460;2022-12-18T04:38:12;-4.30;99.90
12870;DHT22;6503;48.572;13.460;2022-12-18T04:40:43;-4.30;99.90
12870;DHT22;6503;48.572;13.460;2022-12-18T04:43:38;-4.20;99.90
12870;DHT22;6503;48.572;13.460;2022-12-18T04:46:28;-4.30;99.90
12870;DHT22;6503;48.572;13.460;2022-12-18T04:49:00;-4.40;99.90
12870;DHT22;6503;48.572;13.460;2022-12-18T04:51:29;-4.40;99.90
12870;DHT22;6503;48.572;13.460;2022-12-18T04:54:06;-4.40;99.90
12870;DHT22;6503;48.572;13.460;2022-12-18T04:56:47;-4.40;99.90
12870;DHT22;6503;48.572;13.460;2022-12-18T04:59:14;-4.40;99.90
12870;DHT22;6503;48.572;13.460;2022-12-18T05:01:43;-4.50;99.90
12870;DHT22;6503;48.572;13.460;2022-12-18T05:04:13;-4.60;99.90
12870;DHT22;6503;48.572;13.460;2022-12-18T05:06:40;-4.60;99.90
12870;DHT22;6503;48.572;13.460;2022-12-18T05:09:19;-4.60;99.90
12870;DHT22;6503;48.572;13.460;2022-12-18T05:11:45;-4.70;99.90
12870;DHT22;6503;48.572;13.460;2022-12-18T05:14:14;-4.70;99.90
12870;DHT22;6503;48.572;13.460;2022-12-18T05:16:50;-4.80;99.90
12870;DHT22;6503;48.572;13.460;2022-12-18T05:19:26;-4.80;99.90
12870;DHT22;6503;48.572;13.460;2022-12-18T05:21:53;-4.80;99.90
12870;DHT22;6503;48.572;13.460;2022-12-18T05:24:29;-4.90;99.90
12870;DHT22;6503;48.572;13.460;2022-12-18T05:26:56;-4.90;99.90
12870;DHT22;6503;48.572;13.460;2022-12-18T05:29:24;-5.00;99.90
12870;DHT22;6503;48.572;13.460;2022-12-18T05:31:53;-5.00;99.90
12870;DHT22;6503;48.572;13.460;2022-12-18T05:34:24;-5.10;99.90
12870;DHT22;6503;48.572;13.460;2022-12-18T05:37:05;-5.10;99.90
12870;DHT22;6503;48.572;13.460;2022-12-18T05:39:35;-5.10;99.90
12870;DHT22;6503;48.572;13.460;2022-12-18T05:42:06;-5.10;99.90
12870;DHT22;6503;48.572;13.460;2022-12-18T05:44:35;-5.00;99.90
12870;DHT22;6503;48.572;13.460;2022-12-18T05:47:04;-5.00;99.90
12870;DHT22;6503;48.572;13.460;2022-12-18T05:49:31;-5.10;99.90
12870;DHT22;6503;48.572;13.460;2022-12-18T05:51:58;-5.10;99.90
12870;DHT22;6503;48.572;13.460;2022-12-18T05:54:28;-5.20;99.90
12870;DHT22;6503;48.572;13.460;2022-12-18T05:57:00;-5.10;99.90
12870;DHT22;6503;48.572;13.460;2022-12-18T05:59:27;-5.10;99.90
12870;DHT22;6503;48.572;13.460;2022-12-18T06:01:54;-5.40;99.90
12870;DHT22;6503;48.572;13.460;2022-12-18T06:04:21;-5.60;99.90
12870;DHT22;6503;48.572;13.460;2022-12-18T06:06:48;-5.50;99.90
12870;DHT22;6503;48.572;13.460;2022-12-18T06:09:15;-5.40;99.90
12870;DHT22;6503;48.572;13.460;2022-12-18T06:11:43;-5.30;99.90
12870;DHT22;6503;48.572;13.460;2022-12-18T06:14:11;-5.20;99.90
12870;DHT22;6503;48.572;13.460;2022-12-18T06:16:53;-5.50;99.90
12870;DHT22;6503;48.572;13.460;2022-12-18T06:19:26;-5.50;99.90
12870;DHT22;6503;48.572;13.460;2022-12-18T06:22:08;-5.50;99.90
12870;DHT22;6503;48.572;13.460;2022-12-18T06:24:43;-5.60;99.90
12870;DHT22;6503;48.572;13.460;2022-12-18T06:27:10;-5.60;99.90
12870;DHT22;6503;48.572;13.460;2022-12-18T06:29:39;-5.60;99.90
12870;DHT22;6503;48.572;13.460;2022-12-18T06:32:07;-5.80;99.90
12870;DHT22;6503;48.572;13.460;2022-12-18T06:34:36;-6.10;99.90
12870;DHT22;6503;48.572;13.460;2022-12-18T06:37:03;-6.10;99.90
12870;DHT22;6503;48.572;13.460;2022-12-18T06:39:31;-5.90;99.90
12870;DHT22;6503;48.572;13.460;2022-12-18T06:41:59;-5.80;99.90
12870;DHT22;6503;48.572;13.460;2022-12-18T06:44:26;-5.70;99.90
12870;DHT22;6503;48.572;13.460;2022-12-18T06:46:55;-5.70;99.90
12870;DHT22;6503;48.572;13.460;2022-12-18T06:49:22;-5.60;99.90
12870;DHT22;6503;48.572;13.460;2022-12-18T06:51:49;-5.60;99.90
12870;DHT22;6503;48.572;13.460;2022-12-18T06:54:16;-5.60;99.90
12870;DHT22;6503;48.572;13.460;2022-12-18T06:56:45;-5.60;99.90
12870;DHT22;6503;48.572;13.460;2022-12-18T06:59:13;-5.40;99.90
12870;DHT22;6503;48.572;13.460;2022-12-18T07:01:40;-5.50;99.90
12870;DHT22;6503;48.572;13.460;2022-12-18T07:04:08;-5.60;99.90
12870;DHT22;6503;48.572;13.460;2022-12-18T07:06:36;-5.60;99.90
12870;DHT22;6503;48.572;13.460;2022-12-18T07:09:03;-5.60;99.90
12870;DHT22;6503;48.572;13.460;2022-12-18T07:11:32;-5.50;99.90
12870;DHT22;6503;48.572;13.460;2022-12-18T07:14:00;-5.50;99.90
12870;DHT22;6503;48.572;13.460;2022-12-18T07:16:27;-5.50;99.90
12870;DHT22;6503;48.572;13.460;2022-12-18T07:18:55;-5.70;99.90
12870;DHT22;6503;48.572;13.460;2022-12-18T07:21:24;-5.70;99.90
12870;DHT22;6503;48.572;13.460;2022-12-18T07:23:52;-5.60;99.90
12870;DHT22;6503;48.572;13.460;2022-12-18T07:26:20;-5.60;99.90
12870;DHT22;6503;48.572;13.460;2022-12-18T07:28:48;-5.50;99.90
12870;DHT22;6503;48.572;13.460;2022-12-18T07:31:17;-5.60;99.90
12870;DHT22;6503;48.572;13.460;2022-12-18T07:33:45;-5.60;99.90
12870;DHT22;6503;48.572;13.460;2022-12-18T07:36:14;-5.50;99.90
12870;DHT22;6503;48.572;13.460;2022-12-18T07:38:42;-5.50;99.90
12870;DHT22;6503;48.572;13.460;2022-12-18T07:41:11;-5.50;99.90
12870;DHT22;6503;48.572;13.460;2022-12-18T07:43:39;-5.40;99.90
12870;DHT22;6503;48.572;13.460;2022-12-18T07:46:07;-5.40;99.90
12870;DHT22;6503;48.572;13.460;2022-12-18T07:48:34;-5.30;99.90
12870;DHT22;6503;48.572;13.460;2022-12-18T07:51:03;-5.30;99.90
12870;DHT22;6503;48.572;13.460;2022-12-18T07:53:30;-5.30;99.90
12870;DHT22;6503;48.572;13.460;2022-12-18T07:56:00;-5.30;99.90
12870;DHT22;6503;48.572;13.460;2022-12-18T07:58:28;-5.40;99.90
12870;DHT22;6503;48.572;13.460;2022-12-18T08:01:02;-5.40;99.90
12870;DHT22;6503;48.572;13.460;2022-12-18T08:03:29;-5.40;99.90
12870;DHT22;6503;48.572;13.460;2022-12-18T08:05:59;-5.50;99.90
12870;DHT22;6503;48.572;13.460;2022-12-18T08:08:26;-5.50;99.90
12870;DHT22;6503;48.572;13.460;2022-12-18T08:10:56;-5.50;99.90
12870;DHT22;6503;48.572;13.460;2022-12-18T08:13:25;-5.50;99.90
12870;DHT22;6503;48.572;13.460;2022-12-18T08:15:56;-5.50;99.90
12870;DHT22;6503;48.572;13.460;2022-12-18T08:18:24;-5.50;99.90
12870;DHT22;6503;48.572;13.460;2022-12-18T08:20:52;-5.60;99.90
12870;DHT22;6503;48.572;13.460;2022-12-18T08:23:19;-5.60;99.90
12870;DHT22;6503;48.572;13.460;2022-12-18T08:25:46;-5.50;99.90
12870;DHT22;6503;48.572;13.460;2022-12-18T08:28:14;-5.70;99.90
12870;DHT22;6503;48.572;13.460;2022-12-18T08:30:42;-5.80;99.90
12870;DHT22;6503;48.572;13.460;2022-12-18T08:33:10;-5.80;99.90
12870;DHT22;6503;48.572;13.460;2022-12-18T08:35:37;-5.70;99.90
12870;DHT22;6503;48.572;13.460;2022-12-18T08:38:04;-5.80;99.90
12870;DHT22;6503;48.572;13.460;2022-12-18T08:40:31;-5.90;99.90
12870;DHT22;6503;48.572;13.460;2022-12-18T08:43:00;-6.10;99.90
12870;DHT22;6503;48.572;13.460;2022-12-18T08:45:46;-6.00;99.90
12870;DHT22;6503;48.572;13.460;2022-12-18T08:48:13;-5.90;99.90
12870;DHT22;6503;48.572;13.460;2022-12-18T08:50:40;-5.80;99.90
12870;DHT22;6503;48.572;13.460;2022-12-18T08:53:07;-5.70;99.90
12870;DHT22;6503;48.572;13.460;2022-12-18T08:55:34;-5.50;99.90
12870;DHT22;6503;48.572;13.460;2022-12-18T08:58:01;-5.50;99.90
12870;DHT22;6503;48.572;13.460;2022-12-18T09:00:28;-5.60;99.90
12870;DHT22;6503;48.572;13.460;2022-12-18T09:03:00;-5.60;99.90
12870;DHT22;6503;48.572;13.460;2022-12-18T09:05:27;-5.60;99.90
12870;DHT22;6503;48.572;13.460;2022-12-18T09:07:54;-5.60;99.90
12870;DHT22;6503;48.572;13.460;2022-12-18T09:10:21;-5.50;99.90
12870;DHT22;6503;48.572;13.460;2022-12-18T09:12:49;-5.60;99.90
12870;DHT22;6503;48.572;13.460;2022-12-18T09:15:16;-5.60;99.90
12870;DHT22;6503;48.572;13.460;2022-12-18T09:17:43;-5.60;99.90
12870;DHT22;6503;48.572;13.460;2022-12-18T09:20:13;-5.70;99.90
12870;DHT22;6503;48.572;13.460;2022-12-18T09:22:40;-5.70;99.90
12870;DHT22;6503;48.572;13.460;2022-12-18T09:25:07;-5.80;99.90
12870;DHT22;6503;48.572;13.460;2022-12-18T09:27:34;-6.10;99.90
12870;DHT22;6503;48.572;13.460;2022-12-18T09:30:02;-6.20;99.90
12870;DHT22;6503;48.572;13.460;2022-12-18T09:32:29;-6.10;99.90
12870;DHT22;6503;48.572;13.460;2022-12-18T09:34:57;-6.10;99.90
12870;DHT22;6503;48.572;13.460;2022-12-18T09:37:25;-6.00;99.90
12870;DHT22;6503;48.572;13.460;2022-12-18T09:39:52;-6.00;99.90
12870;DHT22;6503;48.572;13.460;2022-12-18T09:42:21;-5.90;99.90
12870;DHT22;6503;48.572;13.460;2022-12-18T09:44:52;-5.90;99.90
12870;DHT22;6503;48.572;13.460;2022-12-18T09:47:37;-5.80;99.90
12870;DHT22;6503;48.572;13.460;2022-12-18T09:50:18;-5.80;99.90
12870;DHT22;6503;48.572;13.460;2022-12-18T09:52:53;-5.80;99.90
12870;DHT22;6503;48.572;13.460;2022-12-18T09:55:25;-5.70;99.90
12870;DHT22;6503;48.572;13.460;2022-12-18T09:57:57;-5.70;99.90
12870;DHT22;6503;48.572;13.460;2022-12-18T10:00:27;-5.60;99.90
12870;DHT22;6503;48.572;13.460;2022-12-18T10:02:59;-5.50;99.90
12870;DHT22;6503;48.572;13.460;2022-12-18T10:05:39;-5.30;99.90
12870;DHT22;6503;48.572;13.460;2022-12-18T10:08:15;-5.20;99.90
12870;DHT22;6503;48.572;13.460;2022-12-18T10:10:48;-5.10;99.90
12870;DHT22;6503;48.572;13.460;2022-12-18T10:13:23;-5.00;99.90
12870;DHT22;6503;48.572;13.460;2022-12-18T10:15:58;-5.00;99.90
12870;DHT22;6503;48.572;13.460;2022-12-18T10:18:36;-4.90;99.90
12870;DHT22;6503;48.572;13.460;2022-12-18T10:21:10;-5.20;99.90
12870;DHT22;6503;48.572;13.460;2022-12-18T10:23:44;-5.10;99.90
12870;DHT22;6503;48.572;13.460;2022-12-18T10:26:13;-5.00;99.90
12870;DHT22;6503;48.572;13.460;2022-12-18T10:28:41;-5.00;99.90
12870;DHT22;6503;48.572;13.460;2022-12-18T10:31:15;-5.00;99.90
12870;DHT22;6503;48.572;13.460;2022-12-18T10:33:43;-4.80;99.90
12870;DHT22;6503;48.572;13.460;2022-12-18T10:36:11;-4.80;99.90
12870;DHT22;6503;48.572;13.460;2022-12-18T10:38:40;-4.70;99.90
12870;DHT22;6503;48.572;13.460;2022-12-18T10:41:24;-4.70;99.90
12870;DHT22;6503;48.572;13.460;2022-12-18T10:44:12;-4.60;99.90
12870;DHT22;6503;48.572;13.460;2022-12-18T10:46:55;-4.50;99.90
12870;DHT22;6503;48.572;13.460;2022-12-18T10:49:31;-4.40;99.90
12870;DHT22;6503;48.572;13.460;2022-12-18T10:52:14;-4.30;99.90
12870;DHT22;6503;48.572;13.460;2022-12-18T10:54:49;-4.20;99.90
12870;DHT22;6503;48.572;13.460;2022-12-18T10:57:29;-4.10;99.90
12870;DHT22;6503;48.572;13.460;2022-12-18T10:59:57;-4.10;99.90
12870;DHT22;6503;48.572;13.460;2022-12-18T11:02:28;-4.10;99.90
12870;DHT22;6503;48.572;13.460;2022-12-18T11:05:36;-4.10;99.90
12870;DHT22;6503;48.572;13.460;2022-12-18T11:08:22;-4.10;99.90
12870;DHT22;6503;48.572;13.460;2022-12-18T11:11:25;-4.00;99.90
12870;DHT22;6503;48.572;13.460;2022-12-18T11:14:16;-3.90;99.90
12870;DHT22;6503;48.572;13.460;2022-12-18T11:17:01;-3.90;99.90
12870;DHT22;6503;48.572;13.460;2022-12-18T11:19:42;-3.80;99.90
12870;DHT22;6503;48.572;13.460;2022-12-18T11:22:34;-3.70;99.90
12870;DHT22;6503;48.572;13.460;2022-12-18T11:25:18;-3.70;99.90
12870;DHT22;6503;48.572;13.460;2022-12-18T11:35:28;-3.60;99.90
12870;DHT22;6503;48.572;13.460;2022-12-18T11:38:24;-3.40;99.90
12870;DHT22;6503;48.572;13.460;2022-12-18T11:41:15;-3.40;99.90
12870;DHT22;6503;48.572;13.460;2022-12-18T11:44:07;-3.30;99.90
12870;DHT22;6503;48.572;13.460;2022-12-18T11:47:15;-3.20;99.90
12870;DHT22;6503;48.572;13.460;2022-12-18T11:50:13;-3.20;99.90
12870;DHT22;6503;48.572;13.460;2022-12-18T11:52:55;-3.10;99.90
12870;DHT22;6503;48.572;13.460;2022-12-18T11:55:37;-3.00;99.90
12870;DHT22;6503;48.572;13.460;2022-12-18T11:58:47;-3.10;99.90
12870;DHT22;6503;48.572;13.460;2022-12-18T12:02:00;-2.80;99.90
12870;DHT22;6503;48.572;13.460;2022-12-18T12:22:14;-2.50;99.90
12870;DHT22;6503;48.572;13.460;2022-12-18T12:36:53;-2.60;99.90
12870;DHT22;6503;48.572;13.460;2022-12-18T12:39:59;-2.60;99.90
12870;DHT22;6503;48.572;13.460;2022-12-18T12:42:41;-2.70;99.90
12870;DHT22;6503;48.572;13.460;2022-12-18T12:48:51;-2.60;99.90
12870;DHT22;6503;48.572;13.460;2022-12-18T12:52:03;-2.40;99.90
12870;DHT22;6503;48.572;13.460;2022-12-18T12:54:59;-2.20;99.90
12870;DHT22;6503;48.572;13.460;2022-12-18T12:57:43;-2.00;99.90
12870;DHT22;6503;48.572;13.460;2022-12-18T13:04:49;-1.60;99.90
12870;DHT22;6503;48.572;13.460;2022-12-18T13:08:06;-1.70;99.90
12870;DHT22;6503;48.572;13.460;2022-12-18T13:14:10;-1.80;99.90
12870;DHT22;6503;48.572;13.460;2022-12-18T13:17:30;-1.70;99.90
12870;DHT22;6503;48.572;13.460;2022-12-18T13:20:09;-1.60;99.90
12870;DHT22;6503;48.572;13.460;2022-12-18T13:22:44;-1.70;99.90
12870;DHT22;6503;48.572;13.460;2022-12-18T13:25:32;-1.60;99.90
12870;DHT22;6503;48.572;13.460;2022-12-18T13:34:32;-1.60;99.90
12870;DHT22;6503;48.572;13.460;2022-12-18T13:43:38;-1.30;99.90
12870;DHT22;6503;48.572;13.460;2022-12-18T13:46:24;-1.30;99.90
12870;DHT22;6503;48.572;13.460;2022-12-18T13:48:58;-1.40;99.90
12870;DHT22;6503;48.572;13.460;2022-12-18T13:51:35;-1.60;99.90
12870;DHT22;6503;48.572;13.460;2022-12-18T13:54:18;-1.70;99.90
12870;DHT22;6503;48.572;13.460;2022-12-18T13:57:00;-1.90;99.90
12870;DHT22;6503;48.572;13.460;2022-12-18T14:00:14;-2.00;99.90
12870;DHT22;6503;48.572;13.460;2022-12-18T14:03:33;-2.10;99.90
12870;DHT22;6503;48.572;13.460;2022-12-18T14:06:21;-2.20;99.90
12870;DHT22;6503;48.572;13.460;2022-12-18T14:15:58;-2.50;99.90
12870;DHT22;6503;48.572;13.460;2022-12-18T14:18:48;-2.50;99.90
12870;DHT22;6503;48.572;13.460;2022-12-18T14:21:26;-2.60;99.90
12870;DHT22;6503;48.572;13.460;2022-12-18T14:24:19;-2.50;99.90
12870;DHT22;6503;48.572;13.460;2022-12-18T14:27:20;-2.60;99.90
12870;DHT22;6503;48.572;13.460;2022-12-18T14:29:48;-2.60;99.90
12870;DHT22;6503;48.572;13.460;2022-12-18T14:32:29;-2.70;99.90
12870;DHT22;6503;48.572;13.460;2022-12-18T14:35:21;-2.80;99.90
12870;DHT22;6503;48.572;13.460;2022-12-18T14:41:38;-3.10;99.90
12870;DHT22;6503;48.572;13.460;2022-12-18T14:42:14;-2.90;99.90
12870;DHT22;6503;48.572;13.460;2022-12-18T14:44:25;-3.10;99.90
12870;DHT22;6503;48.572;13.460;2022-12-18T14:57:40;-3.40;99.90
12870;DHT22;6503;48.572;13.460;2022-12-18T15:00:33;-3.60;99.90
12870;DHT22;6503;48.572;13.460;2022-12-18T15:03:31;-3.70;99.90
12870;DHT22;6503;48.572;13.460;2022-12-18T15:07:38;-3.70;99.90
12870;DHT22;6503;48.572;13.460;2022-12-18T15:10:08;-3.70;99.90
12870;DHT22;6503;48.572;13.460;2022-12-18T15:23:22;-4.10;99.90
12870;DHT22;6503;48.572;13.460;2022-12-18T15:30:22;-4.10;99.90
12870;DHT22;6503;48.572;13.460;2022-12-18T15:33:30;-4.20;99.90
12870;DHT22;6503;48.572;13.460;2022-12-18T15:36:28;-4.30;99.90
12870;DHT22;6503;48.572;13.460;2022-12-18T15:49:47;-4.30;99.90
12870;DHT22;6503;48.572;13.460;2022-12-18T15:53:01;-4.40;99.90
12870;DHT22;6503;48.572;13.460;2022-12-18T15:59:10;-4.70;99.90
12870;DHT22;6503;48.572;13.460;2022-12-18T16:05:48;-4.50;99.90
12870;DHT22;6503;48.572;13.460;2022-12-18T16:08:38;-4.50;99.90
12870;DHT22;6503;48.572;13.460;2022-12-18T16:11:23;-4.60;99.90
12870;DHT22;6503;48.572;13.460;2022-12-18T16:14:26;-4.70;99.90
12870;DHT22;6503;48.572;13.460;2022-12-18T16:17:10;-4.90;99.90
12870;DHT22;6503;48.572;13.460;2022-12-18T16:19:52;-4.90;99.90
12870;DHT22;6503;48.572;13.460;2022-12-18T16:22:22;-4.80;99.90
12870;DHT22;6503;48.572;13.460;2022-12-18T16:28:00;-4.90;99.90
12870;DHT22;6503;48.572;13.460;2022-12-18T16:30:49;-4.90;99.90
12870;DHT22;6503;48.572;13.460;2022-12-18T16:33:37;-4.80;99.90
12870;DHT22;6503;48.572;13.460;2022-12-18T16:36:40;-4.90;99.90
12870;DHT22;6503;48.572;13.460;2022-12-18T16:39:22;-4.90;99.90
12870;DHT22;6503;48.572;13.460;2022-12-18T16:41:58;-5.00;99.90
12870;DHT22;6503;48.572;13.460;2022-12-18T16:44:43;-5.00;99.90
12870;DHT22;6503;48.572;13.460;2022-12-18T16:47:17;-5.00;99.90
12870;DHT22;6503;48.572;13.460;2022-12-18T16:49:59;-5.10;99.90
12870;DHT22;6503;48.572;13.460;2022-12-18T16:52:29;-5.10;99.90
12870;DHT22;6503;48.572;13.460;2022-12-18T16:55:23;-5.00;99.90
12870;DHT22;6503;48.572;13.460;2022-12-18T16:58:06;-5.00;99.90
12870;DHT22;6503;48.572;13.460;2022-12-18T17:00:40;-5.10;99.90
12870;DHT22;6503;48.572;13.460;2022-12-18T17:03:39;-5.10;99.90
12870;DHT22;6503;48.572;13.460;2022-12-18T17:06:57;-5.10;99.90
12870;DHT22;6503;48.572;13.460;2022-12-18T17:09:38;-5.10;99.90
12870;DHT22;6503;48.572;13.460;2022-12-18T17:12:29;-5.00;99.90
12870;DHT22;6503;48.572;13.460;2022-12-18T17:14:56;-5.10;99.90
12870;DHT22;6503;48.572;13.460;2022-12-18T17:17:22;-5.20;99.90
12870;DHT22;6503;48.572;13.460;2022-12-18T17:19:55;-5.10;99.90
12870;DHT22;6503;48.572;13.460;2022-12-18T17:22:22;-5.20;99.90
12870;DHT22;6503;48.572;13.460;2022-12-18T17:24:50;-5.20;99.90
12870;DHT22;6503;48.572;13.460;2022-12-18T17:27:17;-5.20;99.90
12870;DHT22;6503;48.572;13.460;2022-12-18T17:29:48;-5.10;99.90
12870;DHT22;6503;48.572;13.460;2022-12-18T17:32:18;-5.30;99.90
12870;DHT22;6503;48.572;13.460;2022-12-18T17:38:08;-5.30;99.90
12870;DHT22;6503;48.572;13.460;2022-12-18T17:40:50;-5.40;99.90
12870;DHT22;6503;48.572;13.460;2022-12-18T17:43:22;-5.40;99.90
12870;DHT22;6503;48.572;13.460;2022-12-18T17:46:14;-5.40;99.90
12870;DHT22;6503;48.572;13.460;2022-12-18T17:49:04;-5.40;99.90
12870;DHT22;6503;48.572;13.460;2022-12-18T17:51:56;-5.40;99.90
12870;DHT22;6503;48.572;13.460;2022-12-18T17:54:40;-5.40;99.90
12870;DHT22;6503;48.572;13.460;2022-12-18T17:57:43;-5.50;99.90
12870;DHT22;6503;48.572;13.460;2022-12-18T18:00:18;-5.70;99.90
12870;DHT22;6503;48.572;13.460;2022-12-18T18:03:17;-5.60;99.90
12870;DHT22;6503;48.572;13.460;2022-12-18T18:05:45;-5.60;99.90
12870;DHT22;6503;48.572;13.460;2022-12-18T18:08:53;-5.70;99.90
12870;DHT22;6503;48.572;13.460;2022-12-18T18:11:34;-5.80;99.90
12870;DHT22;6503;48.572;13.460;2022-12-18T18:14:25;-5.80;99.90
12870;DHT22;6503;48.572;13.460;2022-12-18T18:20:07;-5.80;99.90
12870;DHT22;6503;48.572;13.460;2022-12-18T18:22:59;-5.90;99.90
12870;DHT22;6503;48.572;13.460;2022-12-18T18:26:06;-6.00;99.90
12870;DHT22;6503;48.572;13.460;2022-12-18T18:28:40;-6.00;99.90
12870;DHT22;6503;48.572;13.460;2022-12-18T18:31:30;-6.00;99.90
12870;DHT22;6503;48.572;13.460;2022-12-18T18:33:59;-6.00;99.90
12870;DHT22;6503;48.572;13.460;2022-12-18T18:40:34;-6.00;99.90
12870;DHT22;6503;48.572;13.460;2022-12-18T18:43:17;-6.10;99.90
12870;DHT22;6503;48.572;13.460;2022-12-18T18:45:55;-6.10;99.90
12870;DHT22;6503;48.572;13.460;2022-12-18T18:48:45;-6.10;99.90